KBJJ

Wayne County Airport

Wooster, Ohio, USA
METAR KBJJ 191056Z AUTO 00000KT 7SM SCT050 SCT070 OVC095 19/19 A3002 RMK AO2 RAB41E56 SLP160 P0000 T01890189 $
Observed Flight Rules
Sep-19 @ 10:56 UTC (8 minutes ago) Visual Flight Rules
Visibility Clouds
7 miles
  • Scattered at 5,000' AGL
  • Scattered at 7,000' AGL
  • Overcast at 9,500' AGL
Temperatures Readings Precipitation
Current 19°C / 66°F
Dewpoint 19°C / 66°F
Humidity 100%
Altimeter 30.02" Hg
Pressure 1016 hPa
Elevation 343
Current Rain 0.005
METAR KBJJ 191056Z AUTO 00000KT 7SM SCT050 SCT070 OVC095 19/19 A3002 RMK AO2 RAB41E56 SLP160 P0000 T01890189 $
Observed Flight Rules
Sep-19 @ 10:56 UTC
(8 minutes ago)
VFR
Clouds
  • Scattered at 5,000' AGL
  • Scattered at 7,000' AGL
  • Overcast at 9,500' AGL
Temperature Dewpoint
19°C / 66°F 19°C / 66°F
Humidity Altimeter Pressure
100% 30.02" Hg 1016 hPa
Current Rain
0.005